createdAt,value
2023-03-22T00:03:08.420Z,12.5
2023-03-22T00:08:08.386Z,12.5
2023-03-22T00:13:08.378Z,12.5
2023-03-22T00:18:08.486Z,12.4
2023-03-22T00:23:08.519Z,12.4
2023-03-22T00:28:08.518Z,12.4
2023-03-22T00:33:08.599Z,12.4
2023-03-22T00:38:08.653Z,12.4
2023-03-22T00:43:08.826Z,12.4
2023-03-22T00:48:08.884Z,12.3
2023-03-22T00:53:08.714Z,12.3
2023-03-22T00:58:08.784Z,12.3
2023-03-22T01:03:08.979Z,12.3
2023-03-22T01:08:08.808Z,12.3
2023-03-22T01:13:08.830Z,12.2
2023-03-22T01:18:08.894Z,12.2
2023-03-22T01:23:08.799Z,12.1
2023-03-22T01:28:08.768Z,12.1
2023-03-22T01:33:08.776Z,12.1
2023-03-22T01:38:08.793Z,12.1
2023-03-22T01:43:08.805Z,12.1
2023-03-22T01:48:08.838Z,12
2023-03-22T01:53:09.101Z,12
2023-03-22T01:58:08.764Z,12
2023-03-22T02:03:08.808Z,12
2023-03-22T02:08:08.767Z,11.9
2023-03-22T02:13:08.767Z,11.9
2023-03-22T02:18:08.758Z,11.9
2023-03-22T02:23:08.805Z,11.9
2023-03-22T02:28:08.765Z,11.9
2023-03-22T02:33:08.843Z,11.9
2023-03-22T02:38:08.782Z,11.9
2023-03-22T02:43:08.804Z,11.8
2023-03-22T02:48:08.781Z,11.8
2023-03-22T02:53:08.756Z,11.8
2023-03-22T02:58:08.769Z,11.8
2023-03-22T03:03:08.782Z,11.8
2023-03-22T03:08:08.750Z,11.8
2023-03-22T03:13:08.820Z,11.8
2023-03-22T03:18:08.874Z,11.7
2023-03-22T03:23:08.889Z,11.7
2023-03-22T03:28:08.887Z,11.7
2023-03-22T03:33:08.981Z,11.6
2023-03-22T03:38:09.065Z,11.6
2023-03-22T03:43:08.986Z,11.6
2023-03-22T03:48:09.093Z,11.6
2023-03-22T03:53:08.964Z,11.6
2023-03-22T03:58:08.995Z,11.6
2023-03-22T04:03:09.047Z,11.5
2023-03-22T04:08:09.159Z,11.5
2023-03-22T04:13:09.056Z,11.5
2023-03-22T04:18:09.065Z,11.4
2023-03-22T04:23:09.106Z,11.4
2023-03-22T04:28:09.110Z,11.4
2023-03-22T04:33:09.140Z,11.4
2023-03-22T04:38:09.243Z,11.4
2023-03-22T04:43:09.228Z,11.4
2023-03-22T04:48:09.228Z,11.4
2023-03-22T04:53:09.249Z,11.4
2023-03-22T04:58:09.254Z,11.3
2023-03-22T05:03:09.383Z,11.3
2023-03-22T05:08:09.295Z,11.3
2023-03-22T05:13:09.319Z,11.3
2023-03-22T05:18:09.332Z,11.3
2023-03-22T05:23:09.375Z,11.3
2023-03-22T05:28:09.357Z,11.3
2023-03-22T05:33:09.374Z,11.3
2023-03-22T05:38:09.388Z,11.3
2023-03-22T05:43:09.445Z,11.3
2023-03-22T05:48:09.617Z,11.2
2023-03-22T05:53:09.472Z,11.2
2023-03-22T05:58:09.567Z,11.2
2023-03-22T06:03:09.592Z,11.2
2023-03-22T06:08:09.520Z,11.2
2023-03-22T06:13:09.574Z,11.2
2023-03-22T06:18:09.580Z,11.2
2023-03-22T06:23:09.608Z,11.2
2023-03-22T06:28:09.603Z,11.2
2023-03-22T06:33:09.612Z,11.2
2023-03-22T06:38:09.632Z,11.2
2023-03-22T06:43:09.676Z,11.2
2023-03-22T06:48:09.730Z,11.1
2023-03-22T06:53:09.710Z,11.1
2023-03-22T06:58:09.994Z,11.1
2023-03-22T07:03:09.823Z,11.1
2023-03-22T07:08:09.863Z,11.1
2023-03-22T07:13:09.838Z,11.1
2023-03-22T07:18:09.785Z,11.1
2023-03-22T07:23:09.818Z,11.1
2023-03-22T07:28:09.796Z,11.2
2023-03-22T07:33:09.804Z,11.1
2023-03-22T07:38:09.785Z,11.2
2023-03-22T07:43:09.834Z,11.2
2023-03-22T07:48:09.878Z,11.2
2023-03-22T07:53:09.782Z,11.2
2023-03-22T07:58:09.928Z,11.2
2023-03-22T08:03:09.888Z,11.3
2023-03-22T08:08:09.839Z,11.3
2023-03-22T08:13:09.793Z,11.3
2023-03-22T08:18:09.890Z,11.3
2023-03-22T08:23:09.813Z,11.3
2023-03-22T08:28:09.788Z,11.4
2023-03-22T08:33:09.914Z,11.4
2023-03-22T08:38:09.776Z,11.5
2023-03-22T08:43:09.792Z,11.5
2023-03-22T08:48:09.865Z,11.6
2023-03-22T08:53:09.772Z,11.6
2023-03-22T08:58:09.777Z,11.6
2023-03-22T09:03:09.809Z,11.7
2023-03-22T09:08:16.576Z,11.8
2023-03-22T09:13:09.777Z,11.8
2023-03-22T09:18:09.788Z,11.9
2023-03-22T09:23:09.788Z,11.9
2023-03-22T09:28:09.810Z,12
2023-03-22T09:33:09.765Z,12.1
2023-03-22T09:38:09.768Z,12.1
2023-03-22T09:43:09.782Z,12.1
2023-03-22T09:48:09.827Z,12.3
2023-03-22T09:53:09.850Z,12.3
2023-03-22T09:58:09.774Z,12.4
2023-03-22T10:03:09.792Z,12.4
2023-03-22T10:08:09.780Z,12.5
2023-03-22T10:13:09.756Z,12.6
2023-03-22T10:18:09.767Z,12.7
2023-03-22T10:23:09.777Z,12.8
2023-03-22T10:28:09.761Z,12.8
2023-03-22T10:33:09.751Z,12.9
2023-03-22T10:38:09.760Z,12.9
2023-03-22T10:43:09.797Z,13.1
2023-03-22T10:48:09.970Z,13.1
2023-03-22T10:53:09.764Z,13.2
2023-03-22T10:58:09.768Z,13.3
2023-03-22T11:03:09.873Z,13.4
2023-03-22T11:08:09.827Z,13.4
2023-03-22T11:13:09.768Z,13.5
2023-03-22T11:18:09.768Z,13.6
2023-03-22T11:23:09.782Z,13.7
2023-03-22T11:28:09.753Z,13.7
2023-03-22T11:33:09.809Z,13.8
2023-03-22T11:38:09.746Z,13.9
2023-03-22T11:43:09.771Z,13.9
2023-03-22T11:48:09.852Z,14
2023-03-22T11:53:09.749Z,14.1
2023-03-22T11:58:09.758Z,14.2
2023-03-22T12:03:10.042Z,14.3
2023-03-22T12:08:09.758Z,14.4
2023-03-22T12:13:09.745Z,14.4
2023-03-22T12:18:09.802Z,14.5
2023-03-22T12:23:09.764Z,14.6
2023-03-22T12:28:09.752Z,14.8
2023-03-22T12:33:09.761Z,14.9
2023-03-22T12:38:09.736Z,14.9
2023-03-22T12:43:09.760Z,15.1
2023-03-22T12:48:09.777Z,15.2
2023-03-22T12:53:09.741Z,15.3
2023-03-22T12:58:09.750Z,15.4
2023-03-22T13:03:10.647Z,15.5
2023-03-22T13:08:09.726Z,15.6
2023-03-22T13:13:09.729Z,15.7
2023-03-22T13:18:09.802Z,15.8
2023-03-22T13:23:09.800Z,15.9
2023-03-22T13:28:09.727Z,16
2023-03-22T13:33:09.834Z,16.1
2023-03-22T13:38:09.732Z,16.2
2023-03-22T13:43:09.820Z,16.3
2023-03-22T13:48:09.903Z,16.4
2023-03-22T13:53:09.771Z,16.5
2023-03-22T13:58:09.775Z,16.6
2023-03-22T14:03:09.916Z,16.6
2023-03-22T14:08:09.768Z,16.8
2023-03-22T14:13:09.791Z,16.8
2023-03-22T14:18:09.799Z,16.8
